Time;durP1;ratioP1;P1;durP2;ratioP2;P2;SDS_P1;SDS_P2;PMS_P1;PMS_P2;Temp;Humidity;BMP_temperature;BMP_pressure;BME280_temperature;BME280_humidity;BME280_pressure;Samples;Min_cycle;Max_cycle;Signal;HPM_P1;HPM_P2
2023/07/31 00:00:48;;;;;;;9.63;2.40;;;;;;;18.71;100.00;100264.94;8287164;28;20049;-64
2023/07/31 00:04:49;;;;;;;9.38;2.85;;;;;;;18.68;100.00;100259.84;8286627;28;20050;-63
2023/07/31 00:08:49;;;;;;;9.05;2.40;;;;;;;18.68;100.00;100259.84;8286761;28;20038;-63
2023/07/31 00:12:50;;;;;;;6.78;2.65;;;;;;;18.69;100.00;100253.31;8286104;28;20045;-63
2023/07/31 00:16:50;;;;;;;9.38;2.70;;;;;;;18.73;100.00;100259.25;8283553;28;20042;-63
2023/07/31 00:20:51;;;;;;;8.27;2.33;;;;;;;18.74;100.00;100250.84;8286254;28;20498;-63
2023/07/31 00:24:51;;;;;;;8.55;2.47;;;;;;;18.80;100.00;100243.72;8285707;28;20531;-64
2023/07/31 00:28:52;;;;;;;5.95;1.98;;;;;;;18.84;100.00;100248.59;8287325;28;20555;-63
2023/07/31 00:32:52;;;;;;;9.98;2.17;;;;;;;18.87;100.00;100252.81;8287565;28;20156;-63
2023/07/31 00:36:53;;;;;;;5.30;1.85;;;;;;;18.85;100.00;100244.78;8286664;28;20049;-64
2023/07/31 00:40:53;;;;;;;3.90;2.00;;;;;;;18.83;100.00;100257.00;8285653;28;20095;-64
2023/07/31 00:44:54;;;;;;;6.03;1.90;;;;;;;18.82;100.00;100245.19;8284016;28;20052;-64
2023/07/31 00:48:56;;;;;;;4.82;2.03;;;;;;;18.83;100.00;100252.38;8285641;28;20038;-64
2023/07/31 00:52:58;;;;;;;5.03;1.88;;;;;;;18.89;100.00;100248.00;8285913;28;20030;-62
2023/07/31 00:56:59;;;;;;;5.93;2.15;;;;;;;18.87;100.00;100241.84;8285905;28;20038;-63
2023/07/31 01:01:00;;;;;;;6.28;2.15;;;;;;;18.86;100.00;100223.72;8286585;28;20034;-64
2023/07/31 01:05:03;;;;;;;7.13;2.50;;;;;;;18.82;100.00;100217.78;8286437;28;20133;-64
2023/07/31 01:09:18;;;;;;;9.23;2.38;;;;;;;18.88;100.00;100224.38;8285324;28;20523;-64
2023/07/31 01:13:19;;;;;;;8.27;2.30;;;;;;;18.82;100.00;100217.78;8283021;28;20045;-63
2023/07/31 01:17:19;;;;;;;5.32;2.22;;;;;;;18.91;100.00;100213.84;8287757;28;20554;-64
2023/07/31 01:26:12;;;;;;;3.58;1.92;;;;;;;18.88;100.00;100208.78;8346965;27;20911;-63
2023/07/31 01:30:22;;;;;;;6.82;2.55;;;;;;;18.84;100.00;100195.69;8328346;28;20077;-63
2023/07/31 01:34:23;;;;;;;6.07;2.15;;;;;;;18.85;100.00;100206.44;8326955;28;20109;-63
2023/07/31 01:38:23;;;;;;;5.22;2.08;;;;;;;18.81;100.00;100204.31;8327480;28;20048;-63
2023/07/31 01:42:24;;;;;;;11.05;2.53;;;;;;;18.85;100.00;100205.63;8326878;28;20029;-63
2023/07/31 01:46:24;;;;;;;5.13;2.40;;;;;;;18.90;100.00;100198.47;8323491;28;20038;-62
2023/07/31 01:50:25;;;;;;;5.63;2.00;;;;;;;18.89;100.00;100195.94;8326286;28;20037;-62
2023/07/31 01:54:25;;;;;;;8.02;2.42;;;;;;;18.89;100.00;100191.31;8330207;28;20607;-63
2023/07/31 01:58:26;;;;;;;6.93;2.17;;;;;;;18.89;100.00;100199.53;8332018;28;20299;-63
2023/07/31 02:02:26;;;;;;;7.55;2.45;;;;;;;18.89;100.00;100191.31;8333046;28;20115;-63
2023/07/31 02:06:27;;;;;;;8.13;2.30;;;;;;;18.90;100.00;100187.50;8332532;28;20466;-63
2023/07/31 02:10:27;;;;;;;9.73;2.28;;;;;;;18.95;100.00;100187.75;8331902;28;20449;-63
2023/07/31 02:14:27;;;;;;;6.45;2.55;;;;;;;19.01;100.00;100184.22;8332440;28;20045;-63
2023/07/31 02:18:28;;;;;;;7.18;2.42;;;;;;;18.99;100.00;100164.38;8332094;28;20033;-63
2023/07/31 02:22:28;;;;;;;10.07;2.70;;;;;;;19.12;100.00;100169.09;8329801;28;20033;-62
2023/07/31 02:26:30;;;;;;;9.40;2.75;;;;;;;19.13;100.00;100166.13;8329389;28;20037;-63
2023/07/31 02:30:30;;;;;;;4.95;2.40;;;;;;;19.10;100.00;100171.19;8332242;28;20139;-63
2023/07/31 02:34:31;;;;;;;9.07;2.60;;;;;;;19.15;100.00;100165.91;8327096;28;20038;-63
2023/07/31 02:38:31;;;;;;;8.88;2.40;;;;;;;19.23;100.00;100165.75;8308870;28;20045;-63
2023/07/31 02:42:32;;;;;;;11.05;2.30;;;;;;;19.21;100.00;100163.22;8309908;28;20044;-63
2023/07/31 02:46:32;;;;;;;7.70;2.78;;;;;;;19.17;100.00;100161.94;8305329;28;20041;-63
2023/07/31 02:50:33;;;;;;;4.47;2.50;;;;;;;19.19;100.00;100154.34;8312750;28;20068;-63
2023/07/31 02:54:33;;;;;;;5.05;2.42;;;;;;;19.22;100.00;100164.06;8312122;28;20557;-63
2023/07/31 02:58:34;;;;;;;7.50;2.67;;;;;;;19.25;100.00;100153.53;8311456;28;20068;-63
2023/07/31 03:02:35;;;;;;;11.75;3.60;;;;;;;19.26;100.00;100138.81;8310481;28;20350;-63
2023/07/31 03:06:36;;;;;;;8.18;3.13;;;;;;;19.25;100.00;100148.03;8310906;28;20415;-62
2023/07/31 03:10:36;;;;;;;6.80;2.30;;;;;;;19.32;100.00;100146.22;8310416;28;20056;-63
2023/07/31 03:14:37;;;;;;;10.75;2.65;;;;;;;19.37;100.00;100140.94;8310865;28;20041;-63
2023/07/31 03:18:37;;;;;;;12.13;3.53;;;;;;;19.42;99.92;100143.06;8312405;28;20438;-63
2023/07/31 03:22:38;;;;;;;7.75;3.05;;;;;;;19.46;99.60;100139.72;8310811;28;20037;-63
2023/07/31 03:26:41;;;;;;;7.00;2.95;;;;;;;19.41;100.00;100136.75;8310155;28;20069;-63
2023/07/31 03:30:41;;;;;;;6.93;2.60;;;;;;;19.39;100.00;100141.59;8309711;28;20037;-63
2023/07/31 03:34:42;;;;;;;9.98;2.63;;;;;;;19.39;100.00;100133.38;8310415;28;20492;-63
2023/07/31 03:38:42;;;;;;;7.53;2.72;;;;;;;19.29;100.00;100130.19;8309858;28;20487;-63
2023/07/31 03:42:43;;;;;;;7.88;2.78;;;;;;;19.25;100.00;100137.06;8309563;28;20045;-63
2023/07/31 03:46:44;;;;;;;10.35;3.45;;;;;;;19.04;100.00;100120.78;8309001;28;20128;-63
2023/07/31 03:50:44;;;;;;;4.70;2.60;;;;;;;18.91;100.00;100107.00;8309067;28;20045;-63
2023/07/31 03:54:45;;;;;;;6.15;2.92;;;;;;;18.90;100.00;100110.81;8309223;28;20045;-63
2023/07/31 03:58:46;;;;;;;5.45;3.47;;;;;;;18.96;100.00;100100.91;8309483;28;20384;-63
2023/07/31 04:02:46;;;;;;;9.80;3.70;;;;;;;19.07;100.00;100109.41;8280130;28;20041;-63
2023/07/31 04:06:47;;;;;;;5.40;3.15;;;;;;;19.16;100.00;100108.16;8307357;28;20116;-63
2023/07/31 04:10:47;;;;;;;7.60;3.38;;;;;;;19.17;100.00;100101.66;8281048;28;20034;-63
2023/07/31 04:14:48;;;;;;;8.65;3.40;;;;;;;19.22;100.00;100101.84;8304487;28;20038;-63
2023/07/31 04:18:48;;;;;;;6.43;2.88;;;;;;;19.28;100.00;100098.31;8299884;28;20422;-63
2023/07/31 04:22:49;;;;;;;6.97;3.33;;;;;;;19.36;100.00;100089.06;8309121;28;20046;-62
2023/07/31 04:26:50;;;;;;;5.70;2.75;;;;;;;19.43;100.00;100085.28;8292918;28;20116;-62
2023/07/31 04:30:51;;;;;;;7.28;2.60;;;;;;;19.45;100.00;100088.66;8295500;28;20053;-62
2023/07/31 04:34:52;;;;;;;5.45;3.28;;;;;;;19.49;100.00;100083.63;8308317;28;20033;-63
2023/07/31 04:38:52;;;;;;;7.90;3.25;;;;;;;19.52;99.67;100093.31;8364158;28;20044;-62
2023/07/31 04:42:52;;;;;;;7.00;3.03;;;;;;;19.56;99.31;100081.72;8373542;28;20052;-62
2023/07/31 04:46:53;;;;;;;8.90;2.90;;;;;;;19.63;98.64;100084.47;8372281;28;20049;-60
2023/07/31 04:50:54;;;;;;;6.45;2.70;;;;;;;19.66;98.22;100090.38;8355173;28;20056;-60
2023/07/31 04:54:54;;;;;;;7.10;2.78;;;;;;;19.65;98.43;100087.84;8373039;28;20472;-60
2023/07/31 04:58:55;;;;;;;6.65;2.83;;;;;;;19.64;97.98;100078.75;8371859;28;20036;-60
2023/07/31 05:02:55;;;;;;;7.68;3.08;;;;;;;19.71;98.25;100076.03;8373197;28;20041;-61
2023/07/31 05:06:56;;;;;;;5.45;3.08;;;;;;;19.78;97.80;100074.13;8373751;28;20040;-60
2023/07/31 05:10:56;;;;;;;7.47;2.33;;;;;;;19.85;96.22;100066.78;8373267;28;20079;-60
2023/07/31 05:14:57;;;;;;;8.32;3.28;;;;;;;19.96;95.52;100063.38;8370902;28;20132;-60
2023/07/31 05:18:57;;;;;;;9.57;3.97;;;;;;;20.00;95.47;100064.66;8374106;28;20115;-60
2023/07/31 05:22:58;;;;;;;6.95;2.60;;;;;;;20.01;94.92;100066.34;8353919;28;20041;-60
2023/07/31 05:26:58;;;;;;;12.05;3.00;;;;;;;20.01;95.12;100055.38;8373502;28;20604;-60
2023/07/31 05:31:01;;;;;;;7.95;3.10;;;;;;;19.97;95.74;100043.94;8385110;28;20564;-60
2023/07/31 05:35:02;;;;;;;5.30;2.45;;;;;;;19.96;94.69;100036.78;8372578;28;20040;-60
2023/07/31 05:39:06;;;;;;;28.27;5.90;;;;;;;19.98;94.74;100033.84;8371987;28;20094;-60
2023/07/31 05:43:08;;;;;;;12.40;3.30;;;;;;;20.06;94.11;100030.88;8368399;28;20048;-60
2023/07/31 05:47:08;;;;;;;5.95;2.70;;;;;;;20.02;94.72;100026.84;8372059;28;20594;-60
2023/07/31 05:51:09;;;;;;;6.78;2.80;;;;;;;20.04;93.99;100022.00;8371358;28;20393;-60
2023/07/31 05:55:09;;;;;;;6.82;3.30;;;;;;;19.98;96.04;100023.72;8371199;28;20494;-60
2023/07/31 05:59:12;;;;;;;8.45;3.05;;;;;;;19.84;100.00;100015.69;8369456;28;20060;-60
2023/07/31 06:03:12;;;;;;;6.75;2.75;;;;;;;19.58;100.00;100032.16;8367567;28;20111;-60
2023/07/31 06:07:14;;;;;;;8.70;3.15;;;;;;;19.28;100.00;100023.47;8365048;28;20055;-61
2023/07/31 06:11:14;;;;;;;12.80;2.80;;;;;;;19.10;100.00;100015.84;8360135;28;20037;-61
2023/07/31 06:15:18;;;;;;;6.30;2.70;;;;;;;19.00;100.00;100009.88;8334095;28;20137;-60
2023/07/31 06:19:20;;;;;;;4.63;2.10;;;;;;;19.01;100.00;100003.38;8374684;28;20062;-59
2023/07/31 06:23:20;;;;;;;8.35;3.13;;;;;;;19.02;100.00;99988.59;8376869;28;20040;-60
2023/07/31 06:27:21;;;;;;;5.50;2.60;;;;;;;19.04;100.00;99991.16;8377432;28;20055;-61
2023/07/31 06:31:22;;;;;;;7.60;3.45;;;;;;;19.10;100.00;100002.13;8364625;28;20551;-61
2023/07/31 06:35:23;;;;;;;9.98;3.10;;;;;;;19.17;100.00;99996.63;8374182;28;20037;-61
2023/07/31 06:39:23;;;;;;;11.68;3.72;;;;;;;19.34;100.00;100003.47;8371684;28;20036;-63
2023/07/31 06:43:24;;;;;;;6.93;3.35;;;;;;;19.48;100.00;100006.00;8373614;28;20051;-63
2023/07/31 06:47:24;;;;;;;6.38;3.25;;;;;;;19.59;100.00;99998.19;8373901;28;20037;-62
2023/07/31 06:51:25;;;;;;;7.18;2.70;;;;;;;19.73;100.00;99991.66;8374027;28;20124;-63
2023/07/31 06:55:27;;;;;;;8.70;3.13;;;;;;;20.12;100.00;99999.81;8374580;28;20041;-62
2023/07/31 06:59:27;;;;;;;7.63;2.20;;;;;;;20.41;100.00;99985.63;8373554;28;20044;-62
2023/07/31 07:03:28;;;;;;;5.88;2.05;;;;;;;20.60;100.00;99990.19;8373732;28;20043;-62
2023/07/31 07:07:28;;;;;;;6.50;2.65;;;;;;;20.62;99.60;99988.06;8368566;28;20041;-62
2023/07/31 07:11:29;;;;;;;7.00;2.42;;;;;;;20.45;97.55;99990.47;8372912;28;20447;-62
2023/07/31 07:15:29;;;;;;;6.65;2.13;;;;;;;20.35;100.00;100002.97;8373948;28;20037;-61
2023/07/31 07:19:30;;;;;;;4.68;2.33;;;;;;;20.14;99.93;99994.97;8375176;28;20037;-60
2023/07/31 07:23:30;;;;;;;5.47;2.70;;;;;;;19.92;100.00;100002.59;8374453;28;20497;-60
2023/07/31 07:27:31;;;;;;;7.00;2.00;;;;;;;19.78;100.00;99989.09;8369095;28;20401;-60
2023/07/31 07:31:31;;;;;;;4.60;2.17;;;;;;;19.79;100.00;99990.81;8372510;28;20090;-60
2023/07/31 07:35:34;;;;;;;5.82;2.40;;;;;;;19.72;100.00;99992.69;8374434;28;20055;-60
2023/07/31 07:39:35;;;;;;;5.38;2.08;;;;;;;19.76;100.00;99996.72;8373443;28;20048;-60
2023/07/31 07:43:35;;;;;;;5.00;2.20;;;;;;;19.49;100.00;99985.72;8372541;28;20036;-60
2023/07/31 07:47:36;;;;;;;5.07;1.75;;;;;;;19.29;100.00;99984.91;8373954;28;20037;-60
2023/07/31 07:51:36;;;;;;;3.10;2.20;;;;;;;19.16;100.00;99982.09;8374016;28;20033;-60
2023/07/31 07:55:37;;;;;;;4.20;1.63;;;;;;;19.13;100.00;99979.75;8371916;28;20131;-60
2023/07/31 07:59:37;;;;;;;8.35;2.72;;;;;;;19.18;100.00;99980.00;8372754;28;20036;-60
2023/07/31 08:03:38;;;;;;;4.90;1.92;;;;;;;19.16;100.00;99973.88;8370566;28;20062;-60
2023/07/31 08:07:38;;;;;;;3.15;1.88;;;;;;;19.25;100.00;99967.13;8371209;28;20040;-60
2023/07/31 08:11:39;;;;;;;4.40;2.00;;;;;;;19.25;100.00;99958.91;8363488;28;20461;-60
2023/07/31 08:15:41;;;;;;;2.67;2.10;;;;;;;19.34;100.00;99960.41;8367448;28;20041;-61
2023/07/31 08:19:41;;;;;;;3.15;1.60;;;;;;;19.45;100.00;99957.06;8368078;28;20036;-60
2023/07/31 08:23:42;;;;;;;3.28;1.33;;;;;;;19.60;100.00;99945.03;8369442;28;20037;-61
2023/07/31 08:27:43;;;;;;;5.00;1.48;;;;;;;19.96;100.00;99953.59;8366838;28;20075;-60
2023/07/31 08:31:44;;;;;;;4.03;1.55;;;;;;;20.21;98.86;99947.25;8365172;28;20049;-60
2023/07/31 08:35:44;;;;;;;3.28;1.65;;;;;;;20.26;95.42;99943.84;8370876;28;20045;-60
2023/07/31 08:39:44;;;;;;;7.00;1.70;;;;;;;20.36;96.31;99955.19;8368255;28;20625;-61
2023/07/31 08:43:46;;;;;;;2.40;1.17;;;;;;;20.34;93.37;99958.16;8367910;28;20115;-60
2023/07/31 08:47:49;;;;;;;5.05;1.35;;;;;;;20.28;92.08;99958.22;8365485;28;20037;-61
2023/07/31 08:51:52;;;;;;;4.78;1.30;;;;;;;20.21;90.14;99951.88;8365021;28;20520;-60
2023/07/31 08:55:54;;;;;;;5.80;1.60;;;;;;;20.33;91.32;99953.75;8363993;28;20059;-62
2023/07/31 08:59:54;;;;;;;5.18;1.38;;;;;;;20.27;91.07;99962.00;8365958;28;20069;-62
2023/07/31 09:03:56;;;;;;;2.25;1.15;;;;;;;20.14;95.17;99956.56;8363781;28;20444;-62
2023/07/31 09:07:57;;;;;;;5.75;1.50;;;;;;;20.20;94.11;99952.94;8366603;28;20032;-60
2023/07/31 09:11:58;;;;;;;2.50;1.35;;;;;;;20.45;91.20;99959.41;8366627;28;20405;-60
2023/07/31 09:15:59;;;;;;;6.85;1.77;;;;;;;20.80;90.27;99957.97;8365104;28;20133;-60
2023/07/31 09:20:17;;;;;;;5.25;2.00;;;;;;;21.27;88.04;99943.72;8367538;28;20083;-61
2023/07/31 09:24:27;;;;;;;4.97;2.00;;;;;;;21.64;85.12;99934.50;8369222;28;20036;-60
2023/07/31 09:28:31;;;;;;;6.30;1.60;;;;;;;22.01;84.02;99947.28;8364499;28;20044;-60
2023/07/31 09:32:31;;;;;;;3.28;1.60;;;;;;;22.57;82.69;99925.88;8359417;28;20064;-60
2023/07/31 09:36:32;;;;;;;2.95;1.35;;;;;;;22.83;82.09;99922.75;8366523;28;20036;-60
2023/07/31 09:40:35;;;;;;;3.58;1.13;;;;;;;23.01;79.95;99925.47;8364680;28;20067;-60
2023/07/31 09:44:40;;;;;;;2.55;1.45;;;;;;;23.25;77.65;99911.75;8361236;28;20037;-61
2023/07/31 09:48:41;;;;;;;3.40;1.27;;;;;;;23.71;76.59;99912.63;8372453;28;20289;-60
2023/07/31 09:52:42;;;;;;;4.13;1.73;;;;;;;23.69;75.09;99916.72;8367876;28;20102;-61
2023/07/31 09:56:46;;;;;;;5.85;1.73;;;;;;;23.41;75.71;99913.81;8369209;28;20033;-60
2023/07/31 10:00:49;;;;;;;4.65;1.73;;;;;;;23.07;77.00;99904.38;8368655;28;20048;-60
2023/07/31 10:04:50;;;;;;;5.95;1.75;;;;;;;22.96;77.27;99908.78;8370854;28;20094;-60
2023/07/31 10:08:53;;;;;;;3.97;1.70;;;;;;;22.71;76.92;99899.81;8367422;28;20115;-60
2023/07/31 10:12:55;;;;;;;5.32;1.60;;;;;;;22.66;78.51;99907.94;8372128;28;20143;-61
2023/07/31 10:16:58;;;;;;;1.85;1.10;;;;;;;22.53;79.11;99896.25;8368295;28;20391;-60
2023/07/31 10:20:58;;;;;;;3.17;1.77;;;;;;;22.82;80.54;99896.28;8370941;28;20037;-61
2023/07/31 10:25:00;;;;;;;3.70;1.50;;;;;;;23.32;78.02;99901.47;8368467;28;20116;-60
2023/07/31 10:29:01;;;;;;;2.42;0.95;;;;;;;23.33;76.94;99898.47;8370665;28;20040;-60
2023/07/31 10:33:02;;;;;;;2.78;1.00;;;;;;;23.04;78.35;99900.16;8366671;28;20494;-61
2023/07/31 10:37:26;;;;;;;1.55;0.80;;;;;;;23.02;79.28;99902.31;8371907;28;20258;-61
2023/07/31 10:41:30;;;;;;;2.45;0.98;;;;;;;22.80;79.76;99903.94;8366869;28;20040;-60
2023/07/31 10:45:36;;;;;;;1.00;0.80;;;;;;;22.71;80.46;99910.84;8361848;28;20524;-60
2023/07/31 10:49:38;;;;;;;4.10;0.80;;;;;;;22.54;80.51;99915.31;8370159;28;20098;-60
2023/07/31 10:53:40;;;;;;;1.20;0.73;;;;;;;22.37;81.52;99908.72;8368928;28;20032;-61
2023/07/31 10:57:44;;;;;;;3.13;0.40;;;;;;;22.25;82.49;99905.06;8368186;28;20049;-63
2023/07/31 11:01:53;;;;;;;;;;;;;;;22.42;82.95;99905.28;8364721;28;20468;-63
2023/07/31 11:06:09;;;;;;;0.50;0.40;;;;;;;22.70;82.18;99892.63;8368965;28;19924;-62
2023/07/31 11:10:09;;;;;;;1.73;0.40;;;;;;;23.41;79.89;99883.44;8368402;28;20040;-63
2023/07/31 11:14:10;;;;;;;0.90;0.50;;;;;;;24.27;75.86;99878.81;8369549;28;20040;-63
2023/07/31 11:18:11;;;;;;;1.17;0.68;;;;;;;24.71;74.20;99875.34;8368891;28;20495;-63
2023/07/31 11:22:11;;;;;;;1.65;0.60;;;;;;;24.82;74.54;99888.25;8367169;28;20033;-63
2023/07/31 11:26:12;;;;;;;0.88;0.63;;;;;;;25.53;73.16;99895.91;8369403;28;20115;-62
2023/07/31 11:30:12;;;;;;;0.50;0.30;;;;;;;26.84;67.08;99883.59;8364363;28;20040;-63
2023/07/31 11:34:13;;;;;;;1.73;0.35;;;;;;;26.52;68.75;99877.13;8368452;28;20041;-62
2023/07/31 11:38:30;;;;;;;1.02;0.30;;;;;;;25.97;68.67;99872.75;8367621;28;20069;-62
2023/07/31 11:42:30;;;;;;;0.25;0.20;;;;;;;25.04;73.44;99875.41;8362872;28;20045;-62
2023/07/31 11:46:31;;;;;;;1.52;0.43;;;;;;;24.23;75.90;99872.13;8364473;28;20186;-62
2023/07/31 11:50:33;;;;;;;2.17;0.50;;;;;;;23.49;79.20;99874.81;8369883;28;20047;-62
2023/07/31 11:54:34;;;;;;;2.20;0.50;;;;;;;23.23;79.90;99873.31;8367563;28;20056;-62
2023/07/31 11:58:36;;;;;;;3.10;0.75;;;;;;;23.14;80.45;99872.84;8366899;28;20052;-60
2023/07/31 12:02:39;;;;;;;1.23;0.88;;;;;;;23.07;80.68;99868.50;8365050;28;20275;-60
2023/07/31 12:06:40;;;;;;;0.77;0.50;;;;;;;23.29;80.17;99857.78;8366227;28;20378;-62
2023/07/31 12:10:40;;;;;;;1.75;1.10;;;;;;;23.39;79.11;99869.06;8365415;28;20068;-63
2023/07/31 12:14:42;;;;;;;2.38;1.00;;;;;;;23.13;79.59;99862.91;8369209;28;20055;-62
2023/07/31 12:18:43;;;;;;;2.03;1.15;;;;;;;23.05;81.08;99867.91;8370579;28;20056;-62
2023/07/31 12:22:44;;;;;;;2.65;1.00;;;;;;;22.98;83.08;99862.50;8368522;28;20164;-62
2023/07/31 12:26:46;;;;;;;3.53;1.35;;;;;;;22.81;81.38;99864.25;8369461;28;20044;-62
2023/07/31 12:30:46;;;;;;;2.95;1.33;;;;;;;22.88;81.26;99862.22;8366510;28;20036;-62
2023/07/31 12:34:47;;;;;;;2.92;1.77;;;;;;;22.69;81.93;99857.84;8366482;28;20087;-63
2023/07/31 12:38:49;;;;;;;2.67;1.42;;;;;;;22.44;82.87;99853.53;8347582;28;20045;-61
2023/07/31 12:42:51;;;;;;;2.65;1.60;;;;;;;22.44;83.69;99853.53;8367163;28;20041;-62
2023/07/31 12:46:51;;;;;;;2.90;1.70;;;;;;;22.63;83.54;99847.78;8360265;28;20409;-61
2023/07/31 12:50:51;;;;;;;2.35;1.58;;;;;;;22.81;82.18;99846.88;8364291;28;20297;-63
2023/07/31 12:54:52;;;;;;;3.35;2.05;;;;;;;22.85;81.12;99843.44;8370895;28;20037;-62
2023/07/31 12:58:52;;;;;;;2.97;1.73;;;;;;;22.85;81.85;99853.59;8370335;28;20041;-62
2023/07/31 13:02:53;;;;;;;4.15;1.50;;;;;;;22.77;82.21;99827.22;8365840;28;20805;-62
2023/07/31 13:06:53;;;;;;;2.53;1.20;;;;;;;22.93;82.27;99815.50;8367916;28;20067;-62
2023/07/31 13:10:54;;;;;;;2.72;1.58;;;;;;;23.11;81.70;99801.59;8368440;28;20060;-63
2023/07/31 13:14:54;;;;;;;3.53;1.63;;;;;;;23.49;80.98;99786.53;8366088;28;20041;-62
2023/07/31 13:18:55;;;;;;;6.22;1.63;;;;;;;23.80;77.63;99769.53;8369500;28;20086;-62
2023/07/31 13:22:55;;;;;;;2.20;1.20;;;;;;;24.09;77.74;99749.19;8369271;28;20064;-61
2023/07/31 13:26:57;;;;;;;1.77;1.10;;;;;;;23.91;76.03;99741.06;8369291;28;20063;-61
2023/07/31 13:30:57;;;;;;;2.35;1.35;;;;;;;23.90;76.30;99750.41;8364808;28;20474;-58
2023/07/31 13:34:58;;;;;;;4.40;1.58;;;;;;;23.79;76.72;99756.81;8367074;28;21137;-58
2023/07/31 13:38:58;;;;;;;4.57;1.50;;;;;;;23.87;75.62;99768.31;8367699;28;20091;-59
2023/07/31 13:42:58;;;;;;;4.10;1.38;;;;;;;24.31;76.32;99748.22;8364462;28;20040;-59
2023/07/31 13:47:00;;;;;;;3.00;1.35;;;;;;;24.69;74.37;99747.56;8365042;28;20036;-59
2023/07/31 13:51:00;;;;;;;3.03;1.40;;;;;;;24.92;73.56;99752.94;8369687;28;20124;-59
2023/07/31 13:55:01;;;;;;;3.33;1.40;;;;;;;24.68;74.21;99755.03;8364927;28;20052;-59
2023/07/31 13:59:01;;;;;;;3.95;1.40;;;;;;;24.54;74.61;99761.09;8365458;28;20043;-59
2023/07/31 14:03:02;;;;;;;2.17;1.40;;;;;;;24.18;75.30;99759.59;8360839;28;20038;-59
2023/07/31 14:07:04;;;;;;;4.15;1.83;;;;;;;23.78;77.25;99761.50;8367409;28;20037;-59
2023/07/31 14:11:04;;;;;;;2.97;1.55;;;;;;;23.45;78.17;99774.28;8362979;28;20052;-60
2023/07/31 14:15:05;;;;;;;2.50;1.63;;;;;;;23.27;79.41;99768.91;8345827;28;20452;-60
2023/07/31 14:19:08;;;;;;;3.15;1.90;;;;;;;23.17;80.15;99784.09;8367145;28;20037;-59
2023/07/31 14:23:08;;;;;;;3.97;1.85;;;;;;;23.20;79.58;99778.09;8369060;28;20065;-59
2023/07/31 14:27:09;;;;;;;4.50;2.28;;;;;;;23.24;78.00;99763.88;8368680;28;20575;-59
2023/07/31 14:31:09;;;;;;;3.20;2.25;;;;;;;23.48;77.40;99757.25;8344455;28;20040;-59
2023/07/31 14:35:10;;;;;;;8.30;2.35;;;;;;;23.42;77.72;99760.97;8369256;28;20395;-60
2023/07/31 14:39:10;;;;;;;3.45;2.42;;;;;;;23.23;78.28;99760.22;8370603;28;20040;-59
2023/07/31 14:43:11;;;;;;;3.50;2.30;;;;;;;23.04;78.26;99754.00;8370610;28;20051;-60
2023/07/31 14:47:11;;;;;;;4.80;2.50;;;;;;;22.98;78.45;99762.38;8367691;28;20496;-60
2023/07/31 14:51:11;;;;;;;4.28;2.50;;;;;;;22.84;78.71;99745.25;8385008;28;20043;-59
2023/07/31 14:55:12;;;;;;;3.92;2.63;;;;;;;22.73;79.21;99748.00;8368647;28;20114;-60
2023/07/31 14:59:12;;;;;;;4.07;2.47;;;;;;;22.79;78.32;99745.13;8370010;28;20033;-59
2023/07/31 15:03:13;;;;;;;4.93;2.60;;;;;;;22.83;79.05;99731.69;8370562;28;20044;-59
2023/07/31 15:07:14;;;;;;;4.03;2.25;;;;;;;22.93;79.41;99732.78;8370437;28;20539;-59
2023/07/31 15:11:15;;;;;;;3.20;2.20;;;;;;;22.79;78.10;99736.00;8368146;28;20042;-60
2023/07/31 15:15:16;;;;;;;3.80;2.20;;;;;;;22.72;79.67;99736.13;8368016;28;20528;-60
2023/07/31 15:19:17;;;;;;;4.65;2.40;;;;;;;22.74;79.55;99733.13;8368527;28;20099;-60
2023/07/31 15:23:18;;;;;;;3.95;2.33;;;;;;;22.70;80.51;99721.75;8368860;28;20054;-59
2023/07/31 15:27:18;;;;;;;4.03;2.28;;;;;;;22.58;80.41;99718.13;8368967;28;20056;-59
2023/07/31 15:31:19;;;;;;;4.30;2.10;;;;;;;22.47;81.49;99710.66;8364079;28;20041;-60
2023/07/31 15:35:19;;;;;;;4.13;2.13;;;;;;;22.28;83.87;99695.28;8369191;28;20033;-60
2023/07/31 15:39:20;;;;;;;4.15;2.40;;;;;;;22.05;88.58;99706.22;8363079;28;20036;-60
2023/07/31 15:43:21;;;;;;;3.75;2.40;;;;;;;21.72;90.75;99705.84;8367454;28;20075;-60
2023/07/31 15:47:21;;;;;;;5.50;2.58;;;;;;;21.49;91.44;99710.34;8367684;28;20093;-60
2023/07/31 15:51:22;;;;;;;4.68;2.30;;;;;;;21.38;92.25;99700.97;8367058;28;20143;-60
2023/07/31 15:55:24;;;;;;;3.67;2.15;;;;;;;21.45;92.04;99698.97;8368294;28;20534;-60
2023/07/31 15:59:25;;;;;;;4.03;2.10;;;;;;;21.56;91.31;99683.63;8368046;28;20349;-59
2023/07/31 16:03:25;;;;;;;3.80;2.35;;;;;;;21.56;94.31;99687.19;8367586;28;20127;-60
2023/07/31 16:07:26;;;;;;;3.90;2.38;;;;;;;21.23;96.13;99684.03;8368298;28;20035;-60
2023/07/31 16:11:27;;;;;;;3.60;1.80;;;;;;;21.07;99.75;99679.13;8365680;28;20045;-60
2023/07/31 16:15:28;;;;;;;5.45;2.42;;;;;;;20.71;100.00;99674.38;8367605;28;20033;-60
2023/07/31 16:19:28;;;;;;;2.80;1.67;;;;;;;20.49;100.00;99653.91;8367425;28;20037;-60
2023/07/31 16:23:29;;;;;;;2.22;1.00;;;;;;;20.25;100.00;99646.50;8367637;28;20039;-59
2023/07/31 16:27:29;;;;;;;1.95;1.27;;;;;;;20.13;100.00;99652.97;8366931;28;20032;-59
2023/07/31 16:31:30;;;;;;;1.70;1.13;;;;;;;20.02;100.00;99645.41;8364493;28;20218;-59
2023/07/31 16:35:31;;;;;;;1.85;1.30;;;;;;;19.89;100.00;99640.00;8366696;28;20041;-60
2023/07/31 16:39:36;;;;;;;3.08;1.40;;;;;;;19.76;100.00;99620.91;8365240;28;20037;-59
2023/07/31 16:43:36;;;;;;;2.00;1.30;;;;;;;19.75;100.00;99611.81;8366490;28;20494;-60
2023/07/31 16:47:36;;;;;;;2.70;1.30;;;;;;;19.79;100.00;99606.75;8366559;28;20406;-61
2023/07/31 16:51:37;;;;;;;1.95;1.15;;;;;;;19.97;100.00;99601.34;8348695;28;20493;-61
2023/07/31 16:55:37;;;;;;;1.98;1.10;;;;;;;20.07;100.00;99596.19;8365909;28;20037;-61
2023/07/31 16:59:38;;;;;;;3.60;0.90;;;;;;;20.17;100.00;99583.66;8362451;28;20487;-60
2023/07/31 17:03:38;;;;;;;3.17;1.02;;;;;;;20.29;100.00;99570.88;8365251;28;20040;-59
2023/07/31 17:07:39;;;;;;;1.60;1.00;;;;;;;20.37;100.00;99567.00;8366046;28;20123;-61
2023/07/31 17:11:39;;;;;;;1.35;1.00;;;;;;;20.33;100.00;99560.28;8364091;28;20044;-61
2023/07/31 17:15:40;;;;;;;1.70;1.27;;;;;;;20.17;100.00;99566.34;8365541;28;20036;-61
2023/07/31 17:19:40;;;;;;;1.88;1.17;;;;;;;19.97;100.00;99554.69;8365132;28;20045;-61
2023/07/31 17:23:41;;;;;;;2.97;0.80;;;;;;;19.87;100.00;99554.34;8362914;28;20047;-61
2023/07/31 17:27:41;;;;;;;2.05;1.52;;;;;;;19.84;100.00;99552.03;8360666;28;20313;-60
2023/07/31 17:31:42;;;;;;;4.93;1.58;;;;;;;19.77;100.00;99538.41;8359394;28;20040;-59
2023/07/31 17:35:43;;;;;;;1.98;1.10;;;;;;;19.62;100.00;99535.13;8364722;28;20037;-59
2023/07/31 17:39:43;;;;;;;3.63;1.10;;;;;;;19.64;100.00;99537.66;8366131;28;20397;-59
2023/07/31 17:43:45;;;;;;;2.03;1.20;;;;;;;19.57;100.00;99526.72;8364765;28;20040;-60
2023/07/31 17:47:45;;;;;;;2.78;1.20;;;;;;;19.64;100.00;99530.25;8345306;28;20029;-59
2023/07/31 17:51:46;;;;;;;2.85;0.90;;;;;;;19.60;100.00;99519.97;8365181;28;20115;-60
2023/07/31 17:55:47;;;;;;;1.40;0.70;;;;;;;19.63;100.00;99514.00;8364963;28;20033;-60
2023/07/31 17:59:48;;;;;;;1.98;1.00;;;;;;;19.51;100.00;99521.31;8361389;28;20076;-60
2023/07/31 18:03:48;;;;;;;1.20;0.82;;;;;;;19.48;100.00;99513.53;8365288;28;20037;-59
2023/07/31 18:07:49;;;;;;;2.47;0.93;;;;;;;19.57;100.00;99513.00;8370554;28;20072;-59
2023/07/31 18:11:50;;;;;;;3.70;0.75;;;;;;;19.52;100.00;99512.00;8369758;28;20044;-59
2023/07/31 18:15:50;;;;;;;2.33;0.90;;;;;;;19.52;100.00;99509.28;8372025;28;20115;-59
2023/07/31 18:19:50;;;;;;;1.67;0.68;;;;;;;19.49;100.00;99508.63;8374374;28;20405;-59
2023/07/31 18:23:51;;;;;;;1.30;0.88;;;;;;;19.41;100.00;99495.22;8367874;28;20056;-60
2023/07/31 18:27:51;;;;;;;0.88;0.60;;;;;;;19.42;100.00;99496.03;8373154;28;20036;-59
2023/07/31 18:31:52;;;;;;;0.98;0.45;;;;;;;19.41;100.00;99480.66;8366220;28;20174;-58
2023/07/31 18:35:52;;;;;;;0.60;0.30;;;;;;;19.41;100.00;99472.44;8376394;28;20063;-59
2023/07/31 18:39:53;;;;;;;3.92;0.40;;;;;;;19.39;100.00;99475.41;8371991;28;20043;-58
2023/07/31 18:43:53;;;;;;;0.50;0.25;;;;;;;19.22;100.00;99479.69;8372595;28;20047;-58
2023/07/31 18:47:54;;;;;;;0.50;0.43;;;;;;;19.28;100.00;99470.63;8370629;28;20040;-59